Time;durP1;ratioP1;P1;durP2;ratioP2;P2;SDS_P1;SDS_P2;PMS_P1;PMS_P2;Temp;Humidity;BMP_temperature;BMP_pressure;BME280_temperature;BME280_humidity;BME280_pressure;Samples;Min_cycle;Max_cycle;Signal;HPM_P1;HPM_P2
2024/04/02 00:00:12;;;;;;;3.35;2.10;;;12.80;96.00;;;;;;5050045;28;20052;-78
2024/04/02 00:02:58;;;;;;;2.90;2.10;;;12.80;96.00;;;;;;5046471;28;20493;-78
2024/04/02 00:05:44;;;;;;;4.55;2.08;;;12.80;96.00;;;;;;5034888;28;20038;-78
2024/04/02 00:08:32;;;;;;;3.83;2.00;;;12.90;96.00;;;;;;5039457;28;20505;-77
2024/04/02 00:11:18;;;;;;;3.70;2.17;;;12.90;95.80;;;;;;5035462;28;20049;-78
2024/04/02 00:14:04;;;;;;;3.45;1.83;;;12.90;95.80;;;;;;5034492;28;20493;-78
2024/04/02 00:16:50;;;;;;;2.97;2.03;;;12.90;95.60;;;;;;5052389;28;20519;-78
2024/04/02 00:19:35;;;;;;;2.22;1.65;;;12.90;95.50;;;;;;5049047;28;20381;-78
2024/04/02 00:22:21;;;;;;;2.70;1.50;;;12.90;95.40;;;;;;5051555;28;20390;-78
2024/04/02 00:25:08;;;;;;;3.38;1.83;;;12.90;95.20;;;;;;5039302;28;20098;-78
2024/04/02 00:27:54;;;;;;;2.65;1.38;;;12.90;95.10;;;;;;5036110;28;20064;-78
2024/04/02 00:30:40;;;;;;;1.60;1.25;;;12.90;95.00;;;;;;5047851;28;20040;-77
2024/04/02 00:33:29;;;;;;;4.07;1.65;;;13.00;94.80;;;;;;5051381;28;20528;-78
2024/04/02 00:36:15;;;;;;;1.83;1.30;;;13.00;94.60;;;;;;5029415;28;20473;-77
2024/04/02 00:39:01;;;;;;;4.20;1.17;;;13.00;94.50;;;;;;5029647;28;20124;-77
2024/04/02 00:41:47;;;;;;;2.22;1.52;;;12.90;94.20;;;;;;5049315;28;20436;-77
2024/04/02 00:44:33;;;;;;;2.58;1.50;;;12.90;94.10;;;;;;5026478;28;20527;-77
2024/04/02 00:47:20;;;;;;;1.65;1.20;;;13.00;94.00;;;;;;5052838;28;20045;-77
2024/04/02 00:50:07;;;;;;;2.60;1.25;;;12.90;93.90;;;;;;5058989;28;20131;-75
2024/04/02 00:52:53;;;;;;;3.83;1.50;;;13.00;93.80;;;;;;5054324;28;20051;-76
2024/04/02 00:55:43;;;;;;;1.90;1.40;;;13.00;93.80;;;;;;5053591;28;20072;-74
2024/04/02 00:58:31;;;;;;;2.17;1.52;;;13.00;93.70;;;;;;5033014;28;20034;-76
2024/04/02 01:01:17;;;;;;;2.58;1.60;;;13.00;93.80;;;;;;5032750;28;20048;-76
2024/04/02 01:04:04;;;;;;;2.95;1.65;;;13.10;93.80;;;;;;5039941;28;20044;-76
2024/04/02 01:06:50;;;;;;;4.63;1.70;;;13.10;93.80;;;;;;5018161;28;20065;-74
2024/04/02 01:09:36;;;;;;;2.47;1.83;;;13.10;93.80;;;;;;5046508;28;20076;-75
2024/04/02 01:12:22;;;;;;;4.30;1.90;;;13.20;93.80;;;;;;5050835;28;20136;-75
2024/04/02 01:15:08;;;;;;;2.65;1.80;;;13.20;93.80;;;;;;5049422;28;20052;-75
2024/04/02 01:17:54;;;;;;;4.18;1.90;;;13.20;93.80;;;;;;5018914;28;20040;-75
2024/04/02 01:20:40;;;;;;;3.00;2.08;;;13.20;93.80;;;;;;5037807;28;20082;-75
2024/04/02 01:23:26;;;;;;;3.72;2.08;;;13.20;93.80;;;;;;5046430;28;20136;-73
2024/04/02 01:26:13;;;;;;;3.45;1.80;;;13.20;93.80;;;;;;5049992;28;20037;-72
2024/04/02 01:29:01;;;;;;;2.10;1.73;;;13.20;93.80;;;;;;5035598;28;20039;-72
2024/04/02 01:31:47;;;;;;;4.13;1.92;;;13.20;93.80;;;;;;5050341;28;20052;-73
2024/04/02 01:34:33;;;;;;;2.28;1.75;;;13.20;93.80;;;;;;5045564;28;20056;-72
2024/04/02 01:37:19;;;;;;;2.67;1.63;;;13.20;93.80;;;;;;5040616;28;20473;-72
2024/04/02 01:40:05;;;;;;;3.40;2.00;;;13.20;93.90;;;;;;5037656;28;20049;-72
2024/04/02 01:42:51;;;;;;;3.40;1.67;;;13.20;93.90;;;;;;5041811;28;20617;-73
2024/04/02 01:45:38;;;;;;;3.30;1.70;;;13.20;93.80;;;;;;5040040;28;20040;-72
2024/04/02 01:48:24;;;;;;;3.30;1.40;;;13.10;93.80;;;;;;5047995;28;20045;-72
2024/04/02 01:51:09;;;;;;;2.28;1.40;;;13.10;93.90;;;;;;5038156;28;20485;-75
2024/04/02 01:53:55;;;;;;;3.30;1.73;;;13.10;93.80;;;;;;5037798;28;20041;-73
2024/04/02 01:56:42;;;;;;;3.05;1.65;;;13.10;93.90;;;;;;5043534;28;20070;-73
2024/04/02 01:59:28;;;;;;;2.08;1.40;;;13.10;93.90;;;;;;5044677;28;20050;-73
2024/04/02 02:02:13;;;;;;;1.60;1.30;;;13.00;93.90;;;;;;5044157;28;20033;-79
2024/04/02 02:04:59;;;;;;;2.97;1.40;;;13.00;93.90;;;;;;5024066;28;20037;-79
2024/04/02 02:07:45;;;;;;;1.95;1.52;;;13.00;93.90;;;;;;5047289;28;20400;-79
2024/04/02 02:10:33;;;;;;;2.25;1.40;;;13.00;93.90;;;;;;5047462;28;20099;-79
2024/04/02 02:13:19;;;;;;;2.40;1.58;;;13.00;94.00;;;;;;5035853;28;20032;-79
2024/04/02 02:16:05;;;;;;;3.70;1.70;;;12.90;93.90;;;;;;5043160;28;20044;-78
2024/04/02 02:18:54;;;;;;;16.80;2.00;;;12.90;93.90;;;;;;5061450;28;20033;-78
2024/04/02 02:21:40;;;;;;;1.85;1.40;;;12.90;94.00;;;;;;5054644;28;20425;-78
2024/04/02 02:24:26;;;;;;;1.90;1.38;;;12.80;93.90;;;;;;5019574;28;20104;-75
2024/04/02 02:27:12;;;;;;;2.55;1.42;;;12.80;94.00;;;;;;5017480;28;20033;-75
2024/04/02 02:29:58;;;;;;;5.65;1.70;;;12.70;94.00;;;;;;5041549;28;20043;-75
2024/04/02 02:32:44;;;;;;;2.00;1.52;;;12.70;94.10;;;;;;5050612;28;20040;-75
2024/04/02 02:35:30;;;;;;;3.22;1.38;;;12.60;94.10;;;;;;5049674;28;20424;-79
2024/04/02 02:38:16;;;;;;;2.60;1.70;;;12.60;94.10;;;;;;5044099;28;20049;-77
2024/04/02 02:41:02;;;;;;;3.17;1.30;;;12.50;94.20;;;;;;5040458;28;20034;-78
2024/04/02 02:43:48;;;;;;;2.03;1.45;;;12.50;94.20;;;;;;5043873;28;20089;-77
2024/04/02 02:46:34;;;;;;;2.28;1.27;;;12.40;94.30;;;;;;5034948;28;20555;-78
2024/04/02 02:49:20;;;;;;;3.08;1.63;;;12.40;94.30;;;;;;5030673;28;20513;-78
2024/04/02 02:52:06;;;;;;;2.53;1.38;;;12.40;94.50;;;;;;5039847;28;20472;-77
2024/04/02 02:54:52;;;;;;;3.63;1.50;;;12.40;94.80;;;;;;5046925;28;20166;-79
2024/04/02 02:57:38;;;;;;;1.75;1.40;;;12.30;94.60;;;;;;5045368;28;20083;-78
2024/04/02 03:00:24;;;;;;;8.18;1.88;;;12.30;94.60;;;;;;5031757;28;20037;-78
2024/04/02 03:03:10;;;;;;;2.15;1.50;;;12.30;94.70;;;;;;5021383;28;20128;-77
2024/04/02 03:05:56;;;;;;;2.33;1.30;;;12.20;94.90;;;;;;5039622;28;20124;-77
2024/04/02 03:08:42;;;;;;;2.05;1.33;;;12.10;94.80;;;;;;5040084;28;20033;-78
2024/04/02 03:11:28;;;;;;;1.80;1.30;;;12.10;94.90;;;;;;5052572;28;20052;-78
2024/04/02 03:14:14;;;;;;;1.55;1.00;;;12.00;94.90;;;;;;5043187;28;20048;-78
2024/04/02 03:17:00;;;;;;;3.20;1.30;;;12.00;95.10;;;;;;5047140;28;20147;-78
2024/04/02 03:19:46;;;;;;;2.63;1.30;;;12.00;95.10;;;;;;5052510;28;20064;-78
2024/04/02 03:22:32;;;;;;;1.40;1.30;;;11.90;95.20;;;;;;5042174;28;20048;-81
2024/04/02 03:25:18;;;;;;;1.80;1.40;;;11.90;95.30;;;;;;5019712;28;20042;-82
2024/04/02 03:28:05;;;;;;;3.40;1.40;;;11.90;95.40;;;;;;5051754;28;20048;-82
2024/04/02 03:30:59;;;;;;;2.15;1.42;;;11.90;95.40;;;;;;5034052;28;20048;-81
2024/04/02 03:33:47;;;;;;;1.83;1.45;;;11.90;95.50;;;;;;5046909;28;20115;-81
2024/04/02 03:36:33;;;;;;;4.15;1.35;;;11.90;95.50;;;;;;5074281;28;20081;-81
2024/04/02 03:39:20;;;;;;;1.77;1.20;;;11.90;95.50;;;;;;5049824;28;20045;-81
2024/04/02 03:42:06;;;;;;;1.33;1.10;;;11.90;95.60;;;;;;5047214;28;20127;-82
2024/04/02 03:44:52;;;;;;;1.88;1.48;;;11.90;95.60;;;;;;5033815;28;20049;-80
2024/04/02 03:47:38;;;;;;;2.03;1.23;;;11.90;95.80;;;;;;5051486;28;20049;-82
2024/04/02 03:50:24;;;;;;;2.63;1.48;;;11.90;95.80;;;;;;5034402;28;20037;-82
2024/04/02 03:53:10;;;;;;;2.20;1.45;;;11.90;95.80;;;;;;5020229;28;20037;-81
2024/04/02 03:56:00;;;;;;;2.03;1.33;;;11.90;95.90;;;;;;5033424;28;20029;-79
2024/04/02 03:58:46;;;;;;;2.38;1.48;;;11.90;96.00;;;;;;5021275;28;20041;-79
2024/04/02 04:01:32;;;;;;;1.83;1.30;;;11.90;96.00;;;;;;5049892;28;20034;-79
2024/04/02 04:04:18;;;;;;;1.63;1.40;;;11.90;96.10;;;;;;5048792;28;20053;-79
2024/04/02 04:07:05;;;;;;;9.27;2.25;;;12.00;96.20;;;;;;5052589;28;20041;-79
2024/04/02 04:09:51;;;;;;;2.40;1.50;;;12.00;96.20;;;;;;5051907;28;20067;-79
2024/04/02 04:12:37;;;;;;;2.45;1.45;;;12.00;96.20;;;;;;5056728;28;20047;-80
2024/04/02 04:15:23;;;;;;;3.20;1.70;;;12.00;96.20;;;;;;5044616;28;20041;-78
2024/04/02 04:18:09;;;;;;;5.78;1.75;;;12.00;96.20;;;;;;5032015;28;20040;-78
2024/04/02 04:20:58;;;;;;;4.50;1.42;;;12.00;96.30;;;;;;5039247;28;20033;-78
2024/04/02 04:23:44;;;;;;;2.97;1.80;;;12.00;96.40;;;;;;5035812;28;20393;-78
2024/04/02 04:26:31;;;;;;;2.55;1.65;;;12.00;96.40;;;;;;5039123;28;20501;-78
2024/04/02 04:29:17;;;;;;;3.05;1.92;;;12.00;96.40;;;;;;5035647;28;20404;-76
2024/04/02 04:32:03;;;;;;;3.28;1.88;;;12.00;96.40;;;;;;5050571;28;20476;-77
2024/04/02 04:34:49;;;;;;;2.58;1.80;;;12.00;96.50;;;;;;5041176;28;20061;-78
2024/04/02 04:37:35;;;;;;;2.47;1.75;;;12.00;96.50;;;;;;5047891;28;20067;-77
2024/04/02 04:40:21;;;;;;;2.72;1.60;;;12.00;96.50;;;;;;5029582;28;20049;-77
2024/04/02 04:43:07;;;;;;;3.13;2.08;;;12.00;96.60;;;;;;5047364;28;20049;-78
2024/04/02 04:45:54;;;;;;;3.00;1.80;;;12.00;96.60;;;;;;5052872;28;20509;-77
2024/04/02 04:48:40;;;;;;;3.55;2.03;;;12.00;96.70;;;;;;5052058;28;20045;-78
2024/04/02 04:51:26;;;;;;;3.30;2.28;;;12.00;97.00;;;;;;5038110;28;20041;-79
2024/04/02 04:54:12;;;;;;;3.15;2.00;;;12.00;96.80;;;;;;5051263;28;20124;-77
2024/04/02 04:56:58;;;;;;;4.22;2.20;;;12.00;96.90;;;;;;5046317;28;20049;-77
2024/04/02 04:59:44;;;;;;;2.33;1.85;;;12.10;97.00;;;;;;5040172;28;20500;-77
2024/04/02 05:02:32;;;;;;;2.80;2.05;;;12.10;97.00;;;;;;5033021;28;20038;-77
2024/04/02 05:05:18;;;;;;;3.92;2.00;;;12.10;97.00;;;;;;5031603;28;20044;-77
2024/04/02 05:08:34;;;;;;;3.63;2.03;;;12.10;97.10;;;;;;5048145;28;20130;-77
2024/04/02 05:11:21;;;;;;;2.75;2.10;;;12.20;97.10;;;;;;4973028;28;20411;-78
2024/04/02 05:14:07;;;;;;;4.47;2.90;;;12.20;97.00;;;;;;4968809;28;20038;-78
2024/04/02 05:16:53;;;;;;;5.93;2.67;;;12.20;97.00;;;;;;4970565;28;20060;-78
2024/04/02 05:19:39;;;;;;;5.05;2.85;;;12.20;97.10;;;;;;4969782;28;20042;-77
2024/04/02 05:22:25;;;;;;;3.08;2.20;;;12.20;97.00;;;;;;4970243;28;20546;-77
2024/04/02 05:25:11;;;;;;;3.00;2.25;;;12.20;97.10;;;;;;4955891;28;20530;-78
2024/04/02 05:27:57;;;;;;;3.85;2.33;;;12.30;97.10;;;;;;4971218;28;20097;-77
2024/04/02 05:30:44;;;;;;;4.43;2.08;;;12.20;97.00;;;;;;4962707;28;20381;-78
2024/04/02 05:33:29;;;;;;;3.53;2.15;;;12.20;97.10;;;;;;4970539;28;20042;-78
2024/04/02 05:36:15;;;;;;;3.42;2.33;;;12.30;97.10;;;;;;4965387;28;20400;-79
2024/04/02 05:39:02;;;;;;;3.95;2.40;;;12.30;97.10;;;;;;4963461;28;20042;-78
2024/04/02 05:41:48;;;;;;;2.92;2.50;;;12.30;97.10;;;;;;4971517;28;20447;-83
2024/04/02 05:44:34;;;;;;;6.40;2.38;;;12.30;97.10;;;;;;4969448;28;20055;-82
2024/04/02 05:47:22;;;;;;;4.05;2.72;;;12.30;97.20;;;;;;5002799;28;20501;-78
2024/04/02 05:50:08;;;;;;;4.88;2.50;;;12.30;97.20;;;;;;5031547;28;20049;-77
2024/04/02 05:52:55;;;;;;;4.60;2.65;;;12.30;97.10;;;;;;5039265;28;20052;-77
2024/04/02 05:55:41;;;;;;;4.95;2.88;;;12.40;97.10;;;;;;5044076;28;20116;-78
2024/04/02 05:58:27;;;;;;;4.93;2.40;;;12.30;97.10;;;;;;5046593;28;20076;-78
2024/04/02 06:01:13;;;;;;;3.55;2.38;;;12.40;97.20;;;;;;5025571;28;20037;-78
2024/04/02 06:03:58;;;;;;;3.80;2.55;;;12.40;97.20;;;;;;5044724;28;20048;-79
2024/04/02 06:06:47;;;;;;;3.70;2.38;;;12.40;97.20;;;;;;5033290;28;20118;-79
2024/04/02 06:09:33;;;;;;;4.07;3.20;;;12.50;97.30;;;;;;5047926;28;20044;-80
2024/04/02 06:12:20;;;;;;;4.53;3.15;;;12.50;97.30;;;;;;5050301;28;20091;-80
2024/04/02 06:15:06;;;;;;;4.43;3.10;;;12.50;97.30;;;;;;5048975;28;20135;-76
2024/04/02 06:17:52;;;;;;;5.82;3.28;;;12.50;97.20;;;;;;5044379;28;20036;-77
2024/04/02 06:20:38;;;;;;;4.32;2.92;;;12.50;97.20;;;;;;5035698;28;20041;-72
2024/04/02 06:23:24;;;;;;;5.90;2.95;;;12.50;97.20;;;;;;5037447;28;20583;-78
2024/04/02 06:26:11;;;;;;;4.88;3.05;;;12.60;97.30;;;;;;5037800;28;20515;-79
2024/04/02 06:28:57;;;;;;;7.97;3.50;;;12.60;97.20;;;;;;5038434;28;20072;-81
2024/04/02 06:31:44;;;;;;;3.70;2.65;;;12.60;97.30;;;;;;5047853;28;20094;-82
2024/04/02 06:34:30;;;;;;;3.75;2.70;;;12.70;97.20;;;;;;5049343;28;20079;-81
2024/04/02 06:37:16;;;;;;;4.68;2.80;;;12.70;97.20;;;;;;5044845;28;20048;-82
2024/04/02 06:40:02;;;;;;;3.88;3.03;;;12.70;97.10;;;;;;5042274;28;20129;-81
2024/04/02 06:42:48;;;;;;;5.82;3.13;;;12.80;97.10;;;;;;5044598;28;20063;-80
2024/04/02 06:45:35;;;;;;;4.63;2.63;;;12.80;97.10;;;;;;5050849;28;20417;-77
2024/04/02 06:48:22;;;;;;;4.45;2.90;;;12.90;97.20;;;;;;5038367;28;20045;-76
2024/04/02 06:51:08;;;;;;;5.65;2.70;;;12.90;97.00;;;;;;5043762;28;20370;-79
2024/04/02 06:53:54;;;;;;;3.58;2.50;;;13.00;96.90;;;;;;5051248;28;20077;-81
2024/04/02 06:56:40;;;;;;;4.65;2.80;;;13.10;96.90;;;;;;5049202;28;20037;-76
2024/04/02 06:59:26;;;;;;;5.18;2.53;;;13.10;96.70;;;;;;5047221;28;20534;-78
2024/04/02 07:02:12;;;;;;;2.63;2.17;;;13.10;96.60;;;;;;5034719;28;20094;-81
2024/04/02 07:04:58;;;;;;;4.63;2.40;;;13.20;96.70;;;;;;5044869;28;20441;-80
2024/04/02 07:07:44;;;;;;;3.70;2.50;;;13.20;96.60;;;;;;5050755;28;20079;-77
2024/04/02 07:10:30;;;;;;;5.82;2.47;;;13.30;96.50;;;;;;5037879;28;20124;-79
2024/04/02 07:13:16;;;;;;;3.67;2.63;;;13.30;96.40;;;;;;5040328;28;20041;-80
2024/04/02 07:16:03;;;;;;;3.40;2.25;;;13.40;96.50;;;;;;5047959;28;20095;-78
2024/04/02 07:18:48;;;;;;;7.25;2.63;;;13.50;96.20;;;;;;5039466;28;20419;-77
2024/04/02 07:21:35;;;;;;;4.28;2.20;;;13.50;96.10;;;;;;5050631;28;20036;-77
2024/04/02 07:24:21;;;;;;;4.70;2.00;;;13.60;95.90;;;;;;5040245;28;20057;-76
2024/04/02 07:27:07;;;;;;;4.10;2.20;;;13.60;95.90;;;;;;5051722;28;20037;-86
2024/04/02 07:29:53;;;;;;;3.15;2.15;;;13.60;95.70;;;;;;5041272;28;20041;-80
2024/04/02 07:32:39;;;;;;;3.92;2.17;;;13.60;95.40;;;;;;5047857;28;20033;-81
2024/04/02 07:35:25;;;;;;;5.40;1.95;;;13.70;95.50;;;;;;5044556;28;20061;-81
2024/04/02 07:38:12;;;;;;;5.32;2.63;;;13.70;95.40;;;;;;5034801;28;20045;-82
2024/04/02 07:40:59;;;;;;;5.88;2.30;;;13.80;95.30;;;;;;5050881;28;20041;-81
2024/04/02 07:43:44;;;;;;;3.15;2.17;;;13.80;95.20;;;;;;5035411;28;20061;-83
2024/04/02 07:46:30;;;;;;;4.60;2.53;;;13.90;95.20;;;;;;5049477;28;20404;-70
2024/04/02 07:49:16;;;;;;;4.10;2.05;;;14.00;95.20;;;;;;5047825;28;20037;-69
2024/04/02 07:52:03;;;;;;;3.80;2.10;;;14.10;95.00;;;;;;5051368;28;20049;-69
2024/04/02 07:54:49;;;;;;;4.15;2.20;;;14.20;94.90;;;;;;5044998;28;20038;-69
2024/04/02 07:57:34;;;;;;;3.92;2.40;;;14.20;95.00;;;;;;5047809;28;20468;-69
2024/04/02 08:00:20;;;;;;;3.83;2.10;;;14.40;95.00;;;;;;5050228;28;20377;-70
2024/04/02 08:03:06;;;;;;;2.15;1.80;;;14.40;94.60;;;;;;5050379;28;20400;-69
2024/04/02 08:05:58;;;;;;;4.22;1.80;;;14.40;94.30;;;;;;5045412;28;20037;-69
2024/04/02 08:08:44;;;;;;;3.00;2.00;;;14.40;94.20;;;;;;5047857;28;20037;-66
2024/04/02 08:11:30;;;;;;;5.28;2.00;;;14.50;94.10;;;;;;5049278;28;20040;-66
2024/04/02 08:14:21;;;;;;;3.83;2.40;;;14.50;93.90;;;;;;5031316;28;20036;-71
2024/04/02 08:17:07;;;;;;;4.40;2.10;;;14.50;93.80;;;;;;5044446;28;20428;-73
2024/04/02 08:19:54;;;;;;;5.95;1.70;;;14.50;93.90;;;;;;5028395;28;20037;-73
2024/04/02 08:22:40;;;;;;;3.15;1.65;;;14.60;93.90;;;;;;5045704;28;20071;-74
2024/04/02 08:25:26;;;;;;;3.53;1.90;;;14.60;93.70;;;;;;5043003;28;20447;-74
2024/04/02 08:28:12;;;;;;;2.97;2.00;;;14.60;93.60;;;;;;5050956;28;20108;-75
2024/04/02 08:30:58;;;;;;;3.88;2.20;;;14.70;93.40;;;;;;5045726;28;20045;-73
2024/04/02 08:33:44;;;;;;;3.53;1.80;;;14.70;93.40;;;;;;5051178;28;20475;-73
2024/04/02 08:36:30;;;;;;;3.75;1.67;;;14.70;93.50;;;;;;5047092;28;20539;-73
2024/04/02 08:39:17;;;;;;;3.05;2.22;;;14.80;93.60;;;;;;5041662;28;20036;-73
2024/04/02 08:42:03;;;;;;;2.42;1.40;;;14.90;93.60;;;;;;5052319;28;20098;-74
2024/04/02 08:44:49;;;;;;;3.30;1.67;;;15.00;93.40;;;;;;5043575;28;20143;-74
2024/04/02 08:47:37;;;;;;;2.22;1.58;;;15.00;93.30;;;;;;5049469;28;20045;-74
2024/04/02 08:50:24;;;;;;;3.40;1.45;;;15.10;93.00;;;;;;5044897;28;20394;-74
2024/04/02 08:53:10;;;;;;;2.58;1.70;;;15.10;92.90;;;;;;5048869;28;20060;-73
2024/04/02 08:55:59;;;;;;;2.15;1.40;;;15.10;92.80;;;;;;5038351;28;20485;-73
2024/04/02 08:58:49;;;;;;;2.08;1.40;;;15.20;92.70;;;;;;5049234;28;20469;-74
2024/04/02 09:01:36;;;;;;;5.28;1.60;;;15.20;92.60;;;;;;5043429;28;20056;-75
2024/04/02 09:04:24;;;;;;;2.92;1.45;;;15.30;92.60;;;;;;5043464;28;20052;-73
2024/04/02 09:07:09;;;;;;;3.13;1.40;;;15.30;92.50;;;;;;5051252;28;20044;-74
2024/04/02 09:09:55;;;;;;;5.63;1.70;;;15.30;92.50;;;;;;5051503;28;20088;-74
2024/04/02 09:12:41;;;;;;;2.55;1.52;;;15.30;92.40;;;;;;5046104;28;20044;-74
2024/04/02 09:15:27;;;;;;;1.90;1.30;;;15.40;92.30;;;;;;5048375;28;20055;-75
2024/04/02 09:18:16;;;;;;;3.13;1.80;;;15.40;92.20;;;;;;5045632;28;20033;-75
2024/04/02 09:21:04;;;;;;;4.32;1.70;;;15.40;91.90;;;;;;5043931;28;20120;-74
2024/04/02 09:23:50;;;;;;;2.13;1.20;;;15.30;91.80;;;;;;5043432;28;20477;-75
2024/04/02 09:26:36;;;;;;;1.20;0.98;;;15.30;91.60;;;;;;5036967;28;20044;-75
2024/04/02 09:29:22;;;;;;;3.75;1.17;;;15.40;91.60;;;;;;5049059;28;20049;-74
2024/04/02 09:32:08;;;;;;;3.05;1.58;;;15.50;91.90;;;;;;5043481;28;20114;-77
2024/04/02 09:34:56;;;;;;;2.55;1.42;;;15.50;91.50;;;;;;5039429;28;20418;-75
2024/04/02 09:37:47;;;;;;;2.67;1.98;;;15.60;91.20;;;;;;5049516;28;20041;-75
2024/04/02 09:40:33;;;;;;;3.78;1.30;;;15.70;91.20;;;;;;5034492;28;20037;-69
2024/04/02 09:43:21;;;;;;;3.63;1.20;;;15.70;91.20;;;;;;5051478;28;20520;-70
2024/04/02 09:46:07;;;;;;;3.25;1.33;;;15.80;90.90;;;;;;5044601;28;20049;-70
2024/04/02 09:48:55;;;;;;;3.65;1.15;;;15.80;90.90;;;;;;5043833;28;20481;-70
2024/04/02 09:51:42;;;;;;;2.05;1.08;;;15.80;90.80;;;;;;5039023;28;20037;-69
2024/04/02 09:54:29;;;;;;;2.70;1.58;;;15.90;90.70;;;;;;5041691;28;20112;-70
2024/04/02 09:57:18;;;;;;;4.68;1.38;;;15.90;90.50;;;;;;5040043;28;20127;-71
2024/04/02 10:00:04;;;;;;;1.60;1.10;;;16.00;90.70;;;;;;5048918;28;20511;-70
2024/04/02 10:02:51;;;;;;;6.32;1.35;;;16.00;90.30;;;;;;5045538;28;20037;-71
2024/04/02 10:05:37;;;;;;;2.00;1.30;;;16.00;90.20;;;;;;5035859;28;20115;-70
2024/04/02 10:08:25;;;;;;;2.35;1.10;;;16.10;89.50;;;;;;5045462;28;20049;-70
2024/04/02 10:11:11;;;;;;;1.13;0.82;;;16.00;89.00;;;;;;5048378;28;20076;-71
2024/04/02 10:14:11;;;;;;;5.85;2.03;;;15.90;88.60;;;;;;5038060;28;20501;-70
2024/04/02 10:16:57;;;;;;;2.38;1.17;;;16.00;88.70;;;;;;5039691;28;20049;-70
2024/04/02 10:19:46;;;;;;;2.53;1.30;;;16.00;89.10;;;;;;5040507;28;20037;-68
2024/04/02 10:22:36;;;;;;;1.02;0.88;;;16.10;87.20;;;;;;5043330;28;20363;-69
2024/04/02 10:25:28;;;;;;;3.80;1.45;;;16.00;87.10;;;;;;5050708;28;20080;-67
2024/04/02 10:28:14;;;;;;;5.22;1.27;;;16.00;87.00;;;;;;5042888;28;20068;-66
2024/04/02 10:31:00;;;;;;;1.38;1.10;;;16.00;87.20;;;;;;5035661;28;20076;-69
2024/04/02 10:33:52;;;;;;;3.75;1.70;;;16.00;86.80;;;;;;5042351;28;20481;-65
2024/04/02 10:36:40;;;;;;;1.80;1.25;;;16.00;87.40;;;;;;5023083;28;20088;-70
2024/04/02 10:39:30;;;;;;;2.38;1.20;;;16.10;88.00;;;;;;5043637;28;20045;-69
2024/04/02 10:42:16;;;;;;;2.95;1.60;;;16.10;88.00;;;;;;5046293;28;20084;-70
2024/04/02 10:45:02;;;;;;;2.45;0.93;;;16.20;88.20;;;;;;5044164;28;20107;-71
2024/04/02 10:47:50;;;;;;;6.15;2.30;;;16.30;87.60;;;;;;5034348;28;20037;-73
2024/04/02 10:50:36;;;;;;;3.38;1.52;;;16.30;88.00;;;;;;5046808;28;20421;-74
2024/04/02 10:53:23;;;;;;;6.05;1.40;;;16.30;87.00;;;;;;5048964;28;20393;-72
2024/04/02 10:56:09;;;;;;;3.47;1.27;;;16.20;86.70;;;;;;5042191;28;20033;-74
2024/04/02 10:58:56;;;;;;;3.85;1.55;;;16.20;86.60;;;;;;5045365;28;20037;-75
2024/04/02 11:01:42;;;;;;;4.78;1.98;;;16.10;86.80;;;;;;5049297;28;20053;-74
2024/04/02 11:04:28;;;;;;;2.08;1.40;;;16.20;87.30;;;;;;5049274;28;20424;-74
2024/04/02 11:07:14;;;;;;;4.82;2.35;;;16.20;86.90;;;;;;5045389;28;20103;-74
2024/04/02 11:10:00;;;;;;;1.58;1.38;;;16.20;86.90;;;;;;5039842;28;20037;-75
2024/04/02 11:12:46;;;;;;;3.15;1.35;;;16.20;86.10;;;;;;5040326;28;20040;-72
2024/04/02 11:15:32;;;;;;;5.38;1.27;;;16.30;86.70;;;;;;5046347;28;20045;-75
2024/04/02 11:18:23;;;;;;;3.10;1.33;;;16.40;86.90;;;;;;5043431;28;20112;-76
2024/04/02 11:21:16;;;;;;;3.13;1.30;;;16.50;86.40;;;;;;5045752;28;20033;-76
2024/04/02 11:27:07;;;;;;;4.03;1.75;;;16.70;85.80;;;;;;5032733;28;20052;-77
2024/04/02 11:29:53;;;;;;;1.67;1.00;;;16.60;84.60;;;;;;5037535;28;20112;-76
2024/04/02 11:32:39;;;;;;;4.47;1.75;;;16.60;84.00;;;;;;5043613;28;20044;-76
2024/04/02 11:35:27;;;;;;;3.38;1.45;;;16.50;84.30;;;;;;5048921;28;20071;-76
2024/04/02 11:38:13;;;;;;;3.15;1.77;;;16.50;84.30;;;;;;5044534;28;20044;-76
2024/04/02 11:41:02;;;;;;;5.47;1.67;;;16.50;84.50;;;;;;5052027;28;20040;-76
2024/04/02 11:43:48;;;;;;;1.50;1.23;;;16.50;84.50;;;;;;5045010;28;20458;-76
2024/04/02 11:46:35;;;;;;;8.30;1.75;;;16.50;84.60;;;;;;5049985;28;20049;-76
2024/04/02 11:49:21;;;;;;;4.03;1.88;;;16.50;84.30;;;;;;5038732;28;20045;-76
2024/04/02 11:52:07;;;;;;;3.53;1.27;;;16.50;84.60;;;;;;5043815;28;20049;-76
2024/04/02 11:54:53;;;;;;;3.72;1.35;;;16.60;84.30;;;;;;5051048;28;20041;-76
2024/04/02 12:00:43;;;;;;;2.28;1.40;;;16.60;84.20;;;;;;5045008;28;20060;-77
2024/04/02 12:03:30;;;;;;;3.78;1.33;;;16.70;84.40;;;;;;5041583;28;20041;-77
2024/04/02 12:06:16;;;;;;;3.22;1.23;;;16.60;84.00;;;;;;5046871;28;20048;-76
2024/04/02 12:09:02;;;;;;;1.98;1.25;;;16.60;84.10;;;;;;5042985;28;20048;-76
2024/04/02 12:11:48;;;;;;;2.85;1.15;;;16.70;84.40;;;;;;5045763;28;20041;-77
2024/04/02 12:14:34;;;;;;;2.63;1.45;;;16.60;84.30;;;;;;5048494;28;20049;-76
2024/04/02 12:17:23;;;;;;;2.78;1.40;;;16.70;84.20;;;;;;5048618;28;20036;-77
2024/04/02 12:20:11;;;;;;;1.92;1.30;;;16.80;84.10;;;;;;5038016;28;20076;-70
2024/04/02 12:22:57;;;;;;;0.95;0.85;;;16.90;83.70;;;;;;5036022;28;20041;-74
2024/04/02 12:25:43;;;;;;;4.82;1.15;;;16.90;83.60;;;;;;5045226;28;20452;-73
2024/04/02 12:28:29;;;;;;;5.95;1.40;;;16.90;83.20;;;;;;5045588;28;20473;-73
2024/04/02 12:31:15;;;;;;;2.20;1.40;;;16.80;83.00;;;;;;5039844;28;20057;-73
2024/04/02 12:34:01;;;;;;;1.85;1.20;;;16.70;84.00;;;;;;5038201;28;20496;-72
2024/04/02 12:36:48;;;;;;;2.97;1.75;;;16.40;85.70;;;;;;5035494;28;20409;-74
2024/04/02 12:39:34;;;;;;;2.17;1.10;;;16.20;87.90;;;;;;5045247;28;20049;-74
2024/04/02 12:42:20;;;;;;;4.20;1.40;;;16.00;89.00;;;;;;5047294;28;20052;-74
2024/04/02 12:45:07;;;;;;;2.92;1.30;;;15.90;89.70;;;;;;5046243;28;20045;-74
2024/04/02 12:47:53;;;;;;;2.35;1.40;;;15.80;90.20;;;;;;5034766;28;20121;-73
2024/04/02 12:50:51;;;;;;;3.20;1.50;;;15.80;90.60;;;;;;5031753;28;20073;-74
2024/04/02 12:53:37;;;;;;;4.57;1.52;;;15.80;90.80;;;;;;5033822;28;20043;-73
2024/04/02 12:56:23;;;;;;;6.05;1.50;;;15.80;91.00;;;;;;5041403;28;20045;-73
2024/04/02 12:59:09;;;;;;;4.00;1.88;;;15.90;91.20;;;;;;5017487;28;20029;-73
2024/04/02 13:01:55;;;;;;;3.20;1.70;;;15.90;91.40;;;;;;5040629;28;20404;-73
2024/04/02 13:04:41;;;;;;;2.30;1.50;;;15.90;91.50;;;;;;5045536;28;20072;-73
2024/04/02 13:07:27;;;;;;;3.67;1.70;;;15.90;91.40;;;;;;5046447;28;20045;-72
2024/04/02 13:10:13;;;;;;;5.15;1.83;;;15.90;91.20;;;;;;5046640;28;20083;-74
2024/04/02 13:12:59;;;;;;;2.17;1.10;;;15.70;91.20;;;;;;5050226;28;20124;-74
2024/04/02 13:15:45;;;;;;;2.20;1.20;;;15.50;90.60;;;;;;5048738;28;20049;-73
2024/04/02 13:18:31;;;;;;;2.33;1.30;;;15.40;90.70;;;;;;5046513;28;20052;-73
2024/04/02 13:21:18;;;;;;;1.92;1.52;;;15.30;91.00;;;;;;5044453;28;20504;-73
2024/04/02 13:24:07;;;;;;;3.30;1.45;;;15.30;91.30;;;;;;5046963;28;20052;-73
2024/04/02 13:26:53;;;;;;;3.15;1.27;;;15.30;91.50;;;;;;5047250;28;20041;-71
2024/04/02 13:29:39;;;;;;;10.05;2.08;;;15.30;91.70;;;;;;5038009;28;20041;-73
2024/04/02 13:32:26;;;;;;;2.88;1.73;;;15.30;91.80;;;;;;5049258;28;20041;-73
2024/04/02 13:35:12;;;;;;;1.90;1.50;;;15.30;91.90;;;;;;5045812;28;20510;-73
2024/04/02 13:37:57;;;;;;;3.08;1.60;;;15.50;92.20;;;;;;5035177;28;20471;-74
2024/04/02 13:40:44;;;;;;;3.20;1.33;;;15.50;92.00;;;;;;5042649;28;20037;-74
2024/04/02 13:43:31;;;;;;;2.72;1.58;;;15.60;92.00;;;;;;5036884;28;20051;-73
2024/04/02 13:46:18;;;;;;;3.53;1.52;;;15.60;91.40;;;;;;5030224;28;20447;-74
2024/04/02 13:49:04;;;;;;;2.05;1.42;;;15.60;91.40;;;;;;5032874;28;20049;-74
2024/04/02 13:51:49;;;;;;;2.13;1.25;;;15.60;91.10;;;;;;5031865;28;20110;-73
2024/04/02 13:54:35;;;;;;;3.28;1.00;;;15.60;91.00;;;;;;5045324;28;20039;-73
2024/04/02 13:57:21;;;;;;;2.28;1.05;;;15.50;91.00;;;;;;5047682;28;20037;-73
2024/04/02 14:00:09;;;;;;;2.30;1.27;;;15.40;91.20;;;;;;5042056;28;20041;-73
2024/04/02 14:02:55;;;;;;;2.67;1.30;;;15.30;91.50;;;;;;5045746;28;20438;-74
2024/04/02 14:05:41;;;;;;;1.50;1.15;;;15.30;91.80;;;;;;5048042;28;20036;-73
2024/04/02 14:08:30;;;;;;;2.60;1.40;;;15.30;91.90;;;;;;5045149;28;20076;-74
2024/04/02 14:11:17;;;;;;;1.77;1.20;;;15.50;92.00;;;;;;5037860;28;20041;-73
2024/04/02 14:14:03;;;;;;;2.50;1.58;;;15.60;92.00;;;;;;5048593;28;20052;-73
2024/04/02 14:16:49;;;;;;;5.30;2.08;;;15.70;92.00;;;;;;5048107;28;20043;-74
2024/04/02 14:19:35;;;;;;;1.73;1.20;;;15.80;91.90;;;;;;5045746;28;20060;-74
2024/04/02 14:22:22;;;;;;;3.17;1.45;;;16.00;91.70;;;;;;5032906;28;20045;-73
2024/04/02 14:25:08;;;;;;;4.72;1.75;;;16.00;91.50;;;;;;5037256;28;20052;-74
2024/04/02 14:27:55;;;;;;;2.55;1.45;;;16.10;91.30;;;;;;5032847;28;20084;-74
2024/04/02 14:30:41;;;;;;;3.40;1.50;;;16.20;91.20;;;;;;5047490;28;20048;-73
2024/04/02 14:33:28;;;;;;;3.22;1.80;;;16.20;91.20;;;;;;5039961;28;20409;-73